aviador You're here:

LFPM Decoded Metar

MELUN in FRANCE
Report Time2017-09-23 21:30:00
UTC Time2017-09-23 21:45:44
Flight Rules vfr VFR
Wind070° at 03 kt
W.Decomp.*RWY 10: 2.6 kt HW 1.5 kt LCW
RWY 01: 1.5 kt HW 2.6 kt RCW
W.Rank070° ranks 23
Current wind is below 070° avg. (5.5)
Visibility9999 m
Phenomena:N/A
Clouds:N/A
Expected CloudBase > 800 ft AGL from Temp-Dew spread
CeilingNone
Temp12°C (ISA -2)
Dew Point10°C (88% RH)
AAT11.0°C
QNH1021 hPa
Density Alt-89 ft
Elevation302 ft
Report Wrong Elevation
Raw Report
METAR LFPM 232130Z AUTO 07003KT CAVOK 12/10 Q1021=

Extra information for LFPM:More info

Metar Taf Metar & Taf Last 4 Metars F.Rules Stats Wind Profile Meteogram Temp Stats Airport Information Weather charts Add Link Nearby VenuesMetar ALERT Operation Metar Decoded Social comments